Time;durP1;ratioP1;P1;durP2;ratioP2;P2;SDS_P1;SDS_P2;PMS_P1;PMS_P2;Temp;Humidity;BMP_temperature;BMP_pressure;BME280_temperature;BME280_humidity;BME280_pressure;Samples;Min_cycle;Max_cycle;Signal;HPM_P1;HPM_P2
2023/09/09 00:02:02;;;;;;;9.43;4.70;;;18.50;99.90;;;;;;5106165;28;20531;-84
2023/09/09 00:04:28;;;;;;;7.07;4.57;;;18.40;99.90;;;;;;5102618;28;20074;-84
2023/09/09 00:06:53;;;;;;;7.65;4.78;;;18.40;99.90;;;;;;5104992;28;20631;-84
2023/09/09 00:09:19;;;;;;;7.07;5.13;;;18.30;99.90;;;;;;5102679;28;20051;-84
2023/09/09 00:11:45;;;;;;;6.55;5.05;;;18.20;99.90;;;;;;5101598;28;20165;-84
2023/09/09 00:14:11;;;;;;;10.80;5.40;;;18.20;99.90;;;;;;5103053;28;20058;-85
2023/09/09 00:16:36;;;;;;;12.93;5.60;;;18.10;99.90;;;;;;5104951;28;20031;-85
2023/09/09 00:19:02;;;;;;;12.85;6.10;;;18.10;99.90;;;;;;5104646;28;20023;-84
2023/09/09 00:21:29;;;;;;;8.25;5.10;;;18.00;99.90;;;;;;5105037;28;20024;-84
2023/09/09 00:23:55;;;;;;;8.38;4.82;;;17.90;99.90;;;;;;5103161;28;20481;-85
2023/09/09 00:26:20;;;;;;;8.45;4.97;;;17.90;99.90;;;;;;5103691;28;20019;-84
2023/09/09 00:28:46;;;;;;;7.05;5.55;;;17.80;99.90;;;;;;5103792;27;20484;-84
2023/09/09 00:31:12;;;;;;;9.52;5.25;;;17.80;99.90;;;;;;5106897;28;20388;-84
2023/09/09 00:33:38;;;;;;;7.30;4.53;;;17.70;99.90;;;;;;5104691;28;20423;-86
2023/09/09 00:36:04;;;;;;;7.35;5.20;;;17.70;99.90;;;;;;5102904;28;20138;-84
2023/09/09 00:38:30;;;;;;;7.95;5.07;;;17.60;99.90;;;;;;5103429;28;20532;-84
2023/09/09 00:41:13;;;;;;;9.32;5.57;;;17.50;99.90;;;;;;5105015;28;20122;-85
2023/09/09 00:43:39;;;;;;;8.40;5.20;;;17.60;99.90;;;;;;5103393;28;20024;-85
2023/09/09 00:46:06;;;;;;;6.93;5.15;;;17.60;99.90;;;;;;5103282;28;20130;-84
2023/09/09 00:48:32;;;;;;;11.05;5.05;;;17.50;99.90;;;;;;5100742;28;20080;-85
2023/09/09 00:50:58;;;;;;;10.93;5.40;;;17.50;99.90;;;;;;5102804;28;20043;-85
2023/09/09 00:53:24;;;;;;;6.00;4.68;;;17.40;99.90;;;;;;5103834;28;20047;-84
2023/09/09 00:55:51;;;;;;;7.80;5.00;;;17.40;99.90;;;;;;5104716;28;20560;-84
2023/09/09 00:58:16;;;;;;;6.25;4.45;;;17.30;99.90;;;;;;5101383;28;20063;-84
2023/09/09 01:00:43;;;;;;;7.45;5.30;;;17.30;99.90;;;;;;5104040;28;20090;-84
2023/09/09 01:03:09;;;;;;;12.73;5.93;;;17.30;99.90;;;;;;5104321;28;20034;-86
2023/09/09 01:05:38;;;;;;;7.38;4.90;;;17.20;99.90;;;;;;5101898;28;20027;-84
2023/09/09 01:08:05;;;;;;;12.32;5.47;;;17.30;99.90;;;;;;5101266;28;20477;-86
2023/09/09 01:10:30;;;;;;;11.88;5.57;;;17.30;99.90;;;;;;5098486;28;20061;-83
2023/09/09 01:12:57;;;;;;;8.50;5.22;;;17.20;99.90;;;;;;5100687;28;20048;-84
2023/09/09 01:15:22;;;;;;;9.05;5.47;;;17.20;99.90;;;;;;5100704;28;20492;-84
2023/09/09 01:17:49;;;;;;;8.70;5.95;;;17.10;99.90;;;;;;5104468;28;20031;-85
2023/09/09 01:20:19;;;;;;;9.73;6.30;;;17.10;99.90;;;;;;5102152;28;20031;-84
2023/09/09 01:22:48;;;;;;;9.07;5.60;;;17.10;99.90;;;;;;5101864;28;20164;-83
2023/09/09 01:25:14;;;;;;;9.18;5.63;;;17.00;99.90;;;;;;5098225;28;20484;-84
2023/09/09 01:27:41;;;;;;;12.40;5.60;;;17.00;99.90;;;;;;5099568;28;20081;-85
2023/09/09 01:30:08;;;;;;;10.88;5.70;;;17.00;99.90;;;;;;5102454;28;20020;-84
2023/09/09 01:32:34;;;;;;;8.73;5.28;;;16.90;99.90;;;;;;5099265;28;20063;-84
2023/09/09 01:35:04;;;;;;;8.05;6.22;;;16.90;99.90;;;;;;5101872;28;20028;-84
2023/09/09 01:37:30;;;;;;;8.73;5.38;;;16.90;99.90;;;;;;5102165;28;20040;-84
2023/09/09 01:39:56;;;;;;;12.00;5.68;;;16.90;99.90;;;;;;5096329;28;20110;-84
2023/09/09 01:42:22;;;;;;;8.40;5.20;;;17.00;99.90;;;;;;5105201;28;20115;-84
2023/09/09 01:44:49;;;;;;;13.50;6.30;;;16.90;99.90;;;;;;5099645;28;20035;-84
2023/09/09 01:47:14;;;;;;;7.45;5.10;;;16.90;99.90;;;;;;5104129;28;20023;-84
2023/09/09 01:49:44;;;;;;;7.28;5.55;;;16.90;99.90;;;;;;5103649;28;20027;-85
2023/09/09 01:52:09;;;;;;;11.50;6.45;;;16.90;99.90;;;;;;5098453;28;20027;-84
2023/09/09 01:54:35;;;;;;;8.15;5.90;;;16.90;99.90;;;;;;5101616;28;20084;-83
2023/09/09 01:57:02;;;;;;;9.38;5.65;;;16.90;99.90;;;;;;5101549;28;20031;-85
2023/09/09 01:59:28;;;;;;;7.63;6.00;;;16.90;99.90;;;;;;5095159;28;20376;-84
2023/09/09 02:01:54;;;;;;;7.85;5.68;;;16.90;99.90;;;;;;5096434;28;20023;-85
2023/09/09 02:04:19;;;;;;;8.85;5.60;;;16.90;99.90;;;;;;5104898;28;20031;-84
2023/09/09 02:06:46;;;;;;;9.35;5.95;;;16.90;99.90;;;;;;5098277;28;20055;-84
2023/09/09 02:09:13;;;;;;;9.88;5.78;;;16.80;99.90;;;;;;5102123;28;20061;-84
2023/09/09 02:11:39;;;;;;;8.73;5.25;;;16.80;99.90;;;;;;5101856;28;20023;-85
2023/09/09 02:14:04;;;;;;;12.75;6.15;;;16.80;99.90;;;;;;5100089;28;20046;-84
2023/09/09 02:16:31;;;;;;;7.82;5.70;;;16.70;99.90;;;;;;5101877;28;20484;-83
2023/09/09 02:18:57;;;;;;;10.55;5.45;;;16.70;99.90;;;;;;5100937;28;20328;-84
2023/09/09 02:21:23;;;;;;;9.43;5.78;;;16.70;99.90;;;;;;5100237;28;20036;-84
2023/09/09 02:23:49;;;;;;;11.88;6.00;;;16.60;99.90;;;;;;5100625;28;20065;-84
2023/09/09 02:26:15;;;;;;;13.77;6.53;;;16.60;99.90;;;;;;5102609;28;20139;-85
2023/09/09 02:28:40;;;;;;;9.88;6.55;;;16.60;99.90;;;;;;5099246;28;20568;-85
2023/09/09 02:31:06;;;;;;;10.05;5.53;;;16.60;99.90;;;;;;5103057;28;20024;-84
2023/09/09 02:33:32;;;;;;;9.57;6.25;;;16.50;99.90;;;;;;5101660;28;20036;-84
2023/09/09 02:36:00;;;;;;;7.47;5.45;;;16.50;99.90;;;;;;5097382;28;20276;-84
2023/09/09 02:38:26;;;;;;;9.57;5.60;;;16.50;99.90;;;;;;5100043;28;20462;-84
2023/09/09 02:40:52;;;;;;;7.35;5.38;;;16.50;99.90;;;;;;5100629;28;20098;-84
2023/09/09 02:43:18;;;;;;;10.60;5.45;;;16.50;99.90;;;;;;5098974;28;20448;-84
2023/09/09 02:45:43;;;;;;;9.05;5.50;;;16.50;99.90;;;;;;5099343;28;20435;-84
2023/09/09 02:48:09;;;;;;;10.90;5.13;;;16.50;99.90;;;;;;5102991;28;20031;-84
2023/09/09 02:50:36;;;;;;;17.80;5.45;;;16.50;99.90;;;;;;5097764;28;20044;-84
2023/09/09 02:53:01;;;;;;;7.13;5.65;;;16.50;99.90;;;;;;5100944;28;20508;-84
2023/09/09 02:55:27;;;;;;;21.30;5.95;;;16.40;99.90;;;;;;5098061;28;20047;-84
2023/09/09 02:57:52;;;;;;;11.13;5.75;;;16.50;99.90;;;;;;5103697;28;20051;-84
2023/09/09 03:00:18;;;;;;;11.60;6.15;;;16.40;99.90;;;;;;5098236;28;20023;-84
2023/09/09 03:02:44;;;;;;;11.27;5.72;;;16.40;99.90;;;;;;5099974;28;20118;-86
2023/09/09 03:05:10;;;;;;;7.75;5.45;;;16.40;99.90;;;;;;5102925;28;20028;-84
2023/09/09 03:07:36;;;;;;;9.98;6.15;;;16.30;99.90;;;;;;5097623;28;20129;-83
2023/09/09 03:10:02;;;;;;;8.18;5.93;;;16.40;99.90;;;;;;5099559;28;20031;-84
2023/09/09 03:12:28;;;;;;;6.63;5.45;;;16.30;99.90;;;;;;5102649;28;20032;-84
2023/09/09 03:14:53;;;;;;;7.95;6.07;;;16.40;99.90;;;;;;5102364;28;20070;-84
2023/09/09 03:17:19;;;;;;;7.85;5.57;;;16.30;99.90;;;;;;5105306;28;20062;-83
2023/09/09 03:19:45;;;;;;;7.80;4.65;;;16.40;99.90;;;;;;5101197;28;20015;-84
2023/09/09 03:22:10;;;;;;;18.77;5.82;;;16.30;99.90;;;;;;5099539;28;20090;-85
2023/09/09 03:24:36;;;;;;;13.90;5.78;;;16.30;99.90;;;;;;5105492;28;20026;-84
2023/09/09 03:27:03;;;;;;;11.13;5.72;;;16.30;99.90;;;;;;5094530;28;20030;-84
2023/09/09 03:29:29;;;;;;;8.45;5.65;;;16.30;99.90;;;;;;5104312;28;20026;-84
2023/09/09 03:31:54;;;;;;;12.15;5.68;;;16.30;99.90;;;;;;5104079;28;20024;-84
2023/09/09 03:34:20;;;;;;;10.35;5.72;;;16.30;99.90;;;;;;5104198;28;20080;-84
2023/09/09 03:36:47;;;;;;;11.32;5.43;;;16.30;99.90;;;;;;5105096;28;20490;-86
2023/09/09 03:39:15;;;;;;;9.23;5.50;;;16.30;99.90;;;;;;5098305;27;20024;-84
2023/09/09 03:41:41;;;;;;;7.90;5.20;;;16.30;99.90;;;;;;5097034;28;20476;-85
2023/09/09 03:44:07;;;;;;;8.63;5.53;;;16.30;99.90;;;;;;5108865;27;20068;-84
2023/09/09 03:46:32;;;;;;;10.68;5.32;;;16.30;99.90;;;;;;5099825;28;20080;-85
2023/09/09 03:48:58;;;;;;;8.43;5.30;;;16.30;99.90;;;;;;5102325;27;20504;-84
2023/09/09 03:51:24;;;;;;;6.65;5.10;;;16.30;99.90;;;;;;5101302;28;20618;-85
2023/09/09 03:53:50;;;;;;;6.10;4.75;;;16.30;99.90;;;;;;5103674;28;20068;-84
2023/09/09 03:56:18;;;;;;;8.43;4.93;;;16.30;99.90;;;;;;5103253;28;20115;-83
2023/09/09 03:58:44;;;;;;;8.13;5.30;;;16.30;99.90;;;;;;5099449;28;20449;-84
2023/09/09 04:01:12;;;;;;;7.75;4.97;;;16.30;99.90;;;;;;5103216;28;20077;-85
2023/09/09 04:03:39;;;;;;;7.20;5.30;;;16.30;99.90;;;;;;5098453;28;20537;-85
2023/09/09 04:06:07;;;;;;;8.40;5.05;;;16.30;99.90;;;;;;5102432;28;20505;-84
2023/09/09 04:08:34;;;;;;;6.60;4.78;;;16.20;99.90;;;;;;5105429;28;20035;-84
2023/09/09 04:11:00;;;;;;;10.73;6.15;;;16.30;99.90;;;;;;5102716;28;20027;-84
2023/09/09 04:13:26;;;;;;;7.72;5.43;;;16.30;99.90;;;;;;5103947;28;20034;-84
2023/09/09 04:15:56;;;;;;;12.60;6.75;;;16.20;99.90;;;;;;5103910;28;20040;-84
2023/09/09 04:18:27;;;;;;;8.27;5.70;;;16.20;99.90;;;;;;5104168;28;20076;-84
2023/09/09 04:20:52;;;;;;;8.95;5.25;;;16.20;99.90;;;;;;5104028;28;20031;-85
2023/09/09 04:23:18;;;;;;;8.60;5.38;;;16.20;99.90;;;;;;5097156;28;20034;-84
2023/09/09 04:25:45;;;;;;;6.40;4.70;;;16.20;99.90;;;;;;5105066;28;20319;-84
2023/09/09 04:28:13;;;;;;;9.18;5.55;;;16.20;99.90;;;;;;5100568;28;20115;-84
2023/09/09 04:30:40;;;;;;;9.63;5.05;;;16.20;99.90;;;;;;5103994;28;20072;-85
2023/09/09 04:33:11;;;;;;;7.35;5.20;;;16.20;99.90;;;;;;5104438;28;20035;-84
2023/09/09 04:35:42;;;;;;;10.82;4.95;;;16.20;99.90;;;;;;5100611;28;20020;-84
2023/09/09 04:38:13;;;;;;;9.10;5.20;;;16.20;99.90;;;;;;5104089;28;20385;-86
2023/09/09 04:40:42;;;;;;;8.00;4.95;;;16.20;99.90;;;;;;5100838;28;20027;-85
2023/09/09 04:43:11;;;;;;;5.50;4.28;;;16.20;99.90;;;;;;5102875;28;20485;-85
2023/09/09 04:45:36;;;;;;;6.20;4.85;;;16.20;99.90;;;;;;5106181;28;20027;-84
2023/09/09 04:48:05;;;;;;;7.82;4.75;;;16.10;99.90;;;;;;5103544;28;20030;-85
2023/09/09 04:50:30;;;;;;;17.33;5.35;;;16.20;99.90;;;;;;5100230;28;20122;-84
2023/09/09 04:52:58;;;;;;;8.10;4.88;;;16.10;99.90;;;;;;5101226;28;20149;-84
2023/09/09 04:55:24;;;;;;;6.88;4.63;;;16.20;99.90;;;;;;5102397;28;20038;-84
2023/09/09 04:57:50;;;;;;;8.43;4.90;;;16.10;99.90;;;;;;5103076;28;20031;-84
2023/09/09 05:00:15;;;;;;;6.55;4.63;;;16.10;99.90;;;;;;5104360;28;20026;-84
2023/09/09 05:02:44;;;;;;;5.47;4.65;;;16.10;99.90;;;;;;5102635;28;20031;-85
2023/09/09 05:05:09;;;;;;;9.13;4.63;;;16.10;99.90;;;;;;5100717;28;20038;-85
2023/09/09 05:07:36;;;;;;;9.50;4.80;;;16.10;99.90;;;;;;5104078;28;20027;-85
2023/09/09 05:10:06;;;;;;;5.32;3.85;;;16.10;99.90;;;;;;5104933;28;20024;-84
2023/09/09 05:12:36;;;;;;;10.32;4.20;;;16.10;99.90;;;;;;5105863;27;20043;-84
2023/09/09 05:15:07;;;;;;;6.35;4.68;;;16.10;99.90;;;;;;5100996;28;20032;-85
2023/09/09 05:17:33;;;;;;;8.02;4.75;;;16.10;99.90;;;;;;5098383;28;20023;-84
2023/09/09 05:19:58;;;;;;;5.63;4.45;;;16.10;99.90;;;;;;5102668;28;20541;-83
2023/09/09 05:22:24;;;;;;;5.95;4.57;;;16.20;99.90;;;;;;5102593;28;20024;-83
2023/09/09 05:24:50;;;;;;;14.15;5.03;;;16.20;99.90;;;;;;5100702;28;20024;-84
2023/09/09 05:27:15;;;;;;;6.78;4.38;;;16.20;99.90;;;;;;5106432;28;20019;-83
2023/09/09 05:29:44;;;;;;;12.82;5.07;;;16.20;99.90;;;;;;5095329;28;20024;-84
2023/09/09 05:32:10;;;;;;;5.38;4.57;;;16.20;99.90;;;;;;5100197;28;20117;-83
2023/09/09 05:34:35;;;;;;;4.68;4.10;;;16.20;99.90;;;;;;5102091;28;20027;-84
2023/09/09 05:37:04;;;;;;;6.25;4.57;;;16.30;99.90;;;;;;5097980;28;20394;-84
2023/09/09 05:39:30;;;;;;;7.50;4.22;;;16.40;99.90;;;;;;5095496;28;20103;-85
2023/09/09 05:41:55;;;;;;;6.30;4.25;;;16.40;99.90;;;;;;5104994;28;20111;-84
2023/09/09 05:44:21;;;;;;;9.52;5.13;;;16.40;99.90;;;;;;5102000;28;20023;-84
2023/09/09 05:46:49;;;;;;;6.22;4.22;;;16.40;99.90;;;;;;5097567;28;20138;-83
2023/09/09 05:49:15;;;;;;;9.02;4.65;;;16.50;99.90;;;;;;5102700;28;20048;-83
2023/09/09 05:51:44;;;;;;;5.40;4.22;;;16.60;99.90;;;;;;5100576;28;20074;-83
2023/09/09 05:54:09;;;;;;;5.45;4.07;;;16.60;99.90;;;;;;5103822;28;20096;-83
2023/09/09 05:56:35;;;;;;;12.07;5.35;;;16.70;99.90;;;;;;5099756;28;20023;-84
2023/09/09 05:59:07;;;;;;;4.78;4.30;;;16.70;99.90;;;;;;5101703;28;20069;-85
2023/09/09 06:01:36;;;;;;;7.03;4.40;;;16.70;99.90;;;;;;5100003;28;20059;-83
2023/09/09 06:04:02;;;;;;;7.03;4.00;;;16.90;99.90;;;;;;5100279;28;20110;-83
2023/09/09 06:06:27;;;;;;;10.10;4.40;;;16.90;99.90;;;;;;5100783;28;20115;-84
2023/09/09 06:08:53;;;;;;;6.90;4.47;;;16.90;99.90;;;;;;5100647;28;20027;-84
2023/09/09 06:11:21;;;;;;;8.63;5.47;;;17.00;99.90;;;;;;5099829;28;20022;-83
2023/09/09 06:13:50;;;;;;;15.15;5.15;;;17.10;99.90;;;;;;5099484;28;20036;-84
2023/09/09 06:16:18;;;;;;;9.27;4.60;;;17.20;99.90;;;;;;5100670;28;20388;-84
2023/09/09 06:18:44;;;;;;;7.75;4.95;;;17.20;99.90;;;;;;5106082;28;20031;-83
2023/09/09 06:21:09;;;;;;;7.00;4.25;;;17.30;99.90;;;;;;5104587;28;20028;-84
2023/09/09 06:23:35;;;;;;;12.90;5.13;;;17.40;99.90;;;;;;5102876;28;20063;-84
2023/09/09 06:26:01;;;;;;;6.10;4.40;;;17.40;99.90;;;;;;5102541;28;20495;-83
2023/09/09 06:28:27;;;;;;;8.50;4.82;;;17.50;99.90;;;;;;5103536;28;20400;-84
2023/09/09 06:30:52;;;;;;;7.80;4.40;;;17.60;99.90;;;;;;5105912;28;20035;-84
2023/09/09 06:33:20;;;;;;;7.72;5.07;;;17.60;99.90;;;;;;5104571;28;20062;-84
2023/09/09 06:35:53;;;;;;;6.72;4.68;;;17.70;99.90;;;;;;5102130;28;20054;-83
2023/09/09 06:38:19;;;;;;;12.13;4.40;;;17.80;99.90;;;;;;5118293;28;20020;-84
2023/09/09 06:40:46;;;;;;;11.82;4.93;;;17.80;99.90;;;;;;5105714;28;20270;-83
2023/09/09 06:43:13;;;;;;;6.00;4.40;;;17.90;99.90;;;;;;5093784;28;20031;-82
2023/09/09 06:45:39;;;;;;;8.32;5.28;;;18.00;99.90;;;;;;5105321;28;20023;-82
2023/09/09 06:48:05;;;;;;;10.73;5.45;;;18.10;99.90;;;;;;5103735;28;20414;-82
2023/09/09 06:50:31;;;;;;;8.02;5.20;;;18.20;99.90;;;;;;5105110;28;20075;-83
2023/09/09 06:52:56;;;;;;;9.07;4.80;;;18.30;99.90;;;;;;5104499;28;20442;-83
2023/09/09 06:55:22;;;;;;;7.57;4.95;;;18.40;99.90;;;;;;5107763;28;20148;-83
2023/09/09 06:57:48;;;;;;;9.35;4.50;;;18.50;99.90;;;;;;5102881;28;20036;-83
2023/09/09 07:00:14;;;;;;;8.48;4.55;;;18.50;99.90;;;;;;5105086;28;20023;-83
2023/09/09 07:02:40;;;;;;;8.60;4.85;;;18.60;99.90;;;;;;5107023;28;20031;-82
2023/09/09 07:05:07;;;;;;;8.43;4.75;;;18.70;99.90;;;;;;5110440;28;20064;-82
2023/09/09 07:07:32;;;;;;;6.35;4.60;;;18.80;99.90;;;;;;5108681;28;20114;-83
2023/09/09 07:09:58;;;;;;;6.50;4.35;;;18.90;99.90;;;;;;5105614;28;20135;-83
2023/09/09 07:12:24;;;;;;;6.38;4.57;;;19.00;99.90;;;;;;5108128;28;20468;-84
2023/09/09 07:14:50;;;;;;;11.48;4.95;;;19.10;99.90;;;;;;5108931;28;20086;-83
2023/09/09 07:17:16;;;;;;;11.18;4.78;;;19.20;99.90;;;;;;5107238;28;20456;-83
2023/09/09 07:19:41;;;;;;;9.73;5.10;;;19.30;99.90;;;;;;5109017;28;20019;-83
2023/09/09 07:22:07;;;;;;;10.60;5.20;;;19.50;99.90;;;;;;5109958;28;20019;-82
2023/09/09 07:24:33;;;;;;;6.63;4.60;;;19.50;99.90;;;;;;5108252;28;20024;-83
2023/09/09 07:27:02;;;;;;;10.73;5.45;;;19.60;99.90;;;;;;5107466;28;20035;-84
2023/09/09 07:29:29;;;;;;;6.20;4.60;;;19.70;99.90;;;;;;5105986;28;20088;-84
2023/09/09 07:31:55;;;;;;;9.38;4.93;;;19.80;99.90;;;;;;5105445;28;20110;-83
2023/09/09 07:34:20;;;;;;;9.63;4.50;;;19.90;99.90;;;;;;5102485;28;20119;-83
2023/09/09 07:36:47;;;;;;;5.68;4.28;;;20.00;99.90;;;;;;5107301;28;20063;-83
2023/09/09 07:39:14;;;;;;;6.45;4.80;;;20.00;99.90;;;;;;5109882;28;20062;-83
2023/09/09 07:41:39;;;;;;;10.10;5.00;;;20.10;99.90;;;;;;5108801;28;20084;-83
2023/09/09 07:44:06;;;;;;;13.65;5.00;;;20.20;99.90;;;;;;5106077;28;21978;-84
2023/09/09 07:46:33;;;;;;;6.28;4.68;;;20.30;99.90;;;;;;5108508;28;20137;-83
2023/09/09 07:48:59;;;;;;;7.65;4.03;;;20.40;99.90;;;;;;5101046;28;20445;-83
2023/09/09 07:51:25;;;;;;;5.90;4.22;;;20.60;99.90;;;;;;5103349;28;20044;-84
2023/09/09 07:53:52;;;;;;;5.55;4.25;;;20.70;99.90;;;;;;5108308;28;20044;-83
2023/09/09 07:56:17;;;;;;;7.28;4.15;;;20.70;99.90;;;;;;5109742;28;20039;-83
2023/09/09 07:58:43;;;;;;;5.57;3.67;;;20.80;99.90;;;;;;5108096;28;20105;-83
2023/09/09 08:01:13;;;;;;;6.22;4.05;;;20.90;99.90;;;;;;5107835;28;20038;-84
2023/09/09 08:03:41;;;;;;;7.53;4.95;;;20.90;99.90;;;;;;5102840;28;20501;-85
2023/09/09 08:06:07;;;;;;;6.35;3.88;;;21.10;99.90;;;;;;5107966;27;20064;-83
2023/09/09 08:08:35;;;;;;;5.43;4.30;;;21.20;99.90;;;;;;5106909;28;20020;-84
2023/09/09 08:11:04;;;;;;;5.65;3.40;;;21.20;99.90;;;;;;5105140;28;20026;-84
2023/09/09 08:13:30;;;;;;;8.32;4.25;;;21.30;99.90;;;;;;5102025;28;20135;-83
2023/09/09 08:15:58;;;;;;;13.55;6.30;;;21.40;99.90;;;;;;5104975;28;20107;-83
2023/09/09 08:18:23;;;;;;;8.73;6.43;;;21.50;99.90;;;;;;5103756;28;20074;-84
2023/09/09 08:20:52;;;;;;;9.98;6.50;;;21.60;99.90;;;;;;5106404;28;20058;-83
2023/09/09 08:23:18;;;;;;;13.55;6.45;;;21.70;99.90;;;;;;5102876;28;20035;-84
2023/09/09 08:25:44;;;;;;;12.60;6.88;;;21.80;99.90;;;;;;5101437;28;20027;-84
2023/09/09 08:28:10;;;;;;;15.43;7.18;;;21.90;99.90;;;;;;5099066;28;20362;-84
2023/09/09 08:30:36;;;;;;;14.30;6.57;;;22.10;99.90;;;;;;5104991;28;20028;-83
2023/09/09 08:33:02;;;;;;;14.80;6.28;;;22.10;99.90;;;;;;5105672;28;20096;-83
2023/09/09 08:35:30;;;;;;;19.48;7.20;;;22.20;99.90;;;;;;5105055;28;20027;-83
2023/09/09 08:37:55;;;;;;;22.67;7.60;;;22.30;99.90;;;;;;5094583;28;20235;-84
2023/09/09 08:40:21;;;;;;;31.15;8.75;;;22.40;99.90;;;;;;5101216;28;20024;-83
2023/09/09 08:42:59;;;;;;;31.92;8.52;;;22.50;99.90;;;;;;5096883;28;20142;-84
2023/09/09 08:45:45;;;;;;;20.25;6.78;;;22.50;99.90;;;;;;5094508;28;20032;-84
2023/09/09 08:48:17;;;;;;;13.82;5.90;;;22.60;99.90;;;;;;5103433;28;20473;-84
2023/09/09 08:50:44;;;;;;;13.13;4.82;;;22.70;99.90;;;;;;5103551;28;20054;-84
2023/09/09 08:53:14;;;;;;;8.70;4.80;;;22.70;99.90;;;;;;5104763;28;20042;-83
2023/09/09 08:55:40;;;;;;;8.10;4.60;;;22.90;99.90;;;;;;5104755;28;20024;-85
2023/09/09 08:58:06;;;;;;;7.00;4.45;;;23.10;99.90;;;;;;5097411;28;20111;-84
2023/09/09 09:00:34;;;;;;;5.75;3.85;;;23.20;99.90;;;;;;5083356;28;20386;-82
2023/09/09 09:03:01;;;;;;;14.63;5.22;;;23.40;99.90;;;;;;5098753;28;20065;-83
2023/09/09 09:05:36;;;;;;;8.05;4.75;;;23.40;99.90;;;;;;5090732;28;20035;-84
2023/09/09 09:08:03;;;;;;;8.02;4.70;;;23.40;99.90;;;;;;5105158;28;20024;-84
2023/09/09 09:10:29;;;;;;;7.45;5.13;;;23.50;99.90;;;;;;5103926;28;20104;-84
2023/09/09 09:12:54;;;;;;;5.78;4.57;;;23.50;99.90;;;;;;5100196;28;20044;-84
2023/09/09 09:15:21;;;;;;;11.23;4.57;;;23.50;99.90;;;;;;5102821;28;20035;-85
2023/09/09 09:17:46;;;;;;;5.72;4.32;;;23.60;99.90;;;;;;5100913;28;20034;-85
2023/09/09 09:20:24;;;;;;;8.18;4.35;;;23.60;99.90;;;;;;5104276;28;20027;-86
2023/09/09 09:22:50;;;;;;;6.57;4.05;;;23.70;99.90;;;;;;5098000;28;20393;-84
2023/09/09 09:25:20;;;;;;;9.18;4.65;;;23.80;99.90;;;;;;5104165;28;20102;-85
2023/09/09 09:27:46;;;;;;;8.38;4.30;;;23.90;99.90;;;;;;5103161;28;20042;-85
2023/09/09 09:30:11;;;;;;;6.78;5.13;;;23.90;99.90;;;;;;5102257;28;20028;-85
2023/09/09 09:32:41;;;;;;;7.95;4.10;;;24.00;99.90;;;;;;5104425;28;20039;-86
2023/09/09 09:35:28;;;;;;;5.57;4.32;;;24.00;99.90;;;;;;5103262;28;20108;-85
2023/09/09 09:37:59;;;;;;;11.38;4.78;;;24.10;99.90;;;;;;5095309;28;20080;-86
2023/09/09 09:40:26;;;;;;;12.70;4.40;;;24.20;99.90;;;;;;5105586;28;20031;-86
2023/09/09 09:42:51;;;;;;;5.93;4.20;;;24.20;99.90;;;;;;5104205;28;20039;-86
2023/09/09 09:45:21;;;;;;;10.52;4.05;;;24.30;99.90;;;;;;5099560;28;20551;-85
2023/09/09 09:47:47;;;;;;;7.13;4.05;;;24.30;99.90;;;;;;5100554;28;20026;-87
2023/09/09 09:50:34;;;;;;;8.10;4.47;;;24.30;99.90;;;;;;5087826;28;20585;-85
2023/09/09 09:53:02;;;;;;;6.05;4.40;;;24.40;99.90;;;;;;5102846;28;20078;-86
2023/09/09 09:55:31;;;;;;;6.25;4.00;;;24.50;99.90;;;;;;5102830;28;20054;-86
2023/09/09 09:58:04;;;;;;;6.30;3.95;;;24.50;99.90;;;;;;5102399;28;20526;-86
2023/09/09 10:00:30;;;;;;;7.93;4.55;;;24.60;99.90;;;;;;5092446;28;20707;-86
2023/09/09 10:02:57;;;;;;;7.28;4.88;;;24.70;98.10;;;;;;5100938;28;20031;-86
2023/09/09 10:05:25;;;;;;;4.60;4.00;;;24.80;99.90;;;;;;5102894;28;20020;-86
2023/09/09 10:08:19;;;;;;;6.45;4.30;;;24.80;99.90;;;;;;5096730;28;20027;-86
2023/09/09 10:11:10;;;;;;;7.63;4.70;;;24.90;99.90;;;;;;5104528;28;20384;-87
2023/09/09 10:13:48;;;;;;;6.38;3.83;;;25.00;99.90;;;;;;5098605;28;20120;-88
2023/09/09 10:16:17;;;;;;;5.88;3.95;;;25.00;99.90;;;;;;5101587;28;20032;-86
2023/09/09 10:18:44;;;;;;;6.22;3.90;;;25.00;99.90;;;;;;5100112;28;20106;-87
2023/09/09 10:21:12;;;;;;;5.72;4.40;;;25.00;98.70;;;;;;5098360;28;20023;-88
2023/09/09 10:23:40;;;;;;;5.05;3.75;;;25.10;95.30;;;;;;5101869;28;20023;-86
2023/09/09 10:26:07;;;;;;;5.85;4.20;;;25.10;98.00;;;;;;5101979;28;20497;-87
2023/09/09 10:28:34;;;;;;;5.60;3.30;;;25.20;99.90;;;;;;5105593;28;20027;-86
2023/09/09 10:31:00;;;;;;;10.40;4.53;;;25.20;99.90;;;;;;5097777;28;20023;-86
2023/09/09 10:33:28;;;;;;;7.43;4.13;;;25.30;99.90;;;;;;5103082;28;20040;-89
2023/09/09 10:35:54;;;;;;;12.57;4.53;;;25.30;99.90;;;;;;5101316;28;20107;-87
2023/09/09 10:38:26;;;;;;;8.27;4.05;;;25.40;97.50;;;;;;5110476;28;20024;-87
2023/09/09 10:40:52;;;;;;;11.73;4.32;;;25.50;97.90;;;;;;5109585;28;20533;-86
2023/09/09 10:43:18;;;;;;;8.73;4.90;;;25.50;96.20;;;;;;5099778;27;20024;-87
2023/09/09 10:45:44;;;;;;;7.15;4.57;;;25.50;94.50;;;;;;5105955;28;20039;-87
2023/09/09 10:48:10;;;;;;;6.80;5.15;;;25.60;94.30;;;;;;5107859;28;20473;-86
2023/09/09 10:50:52;;;;;;;15.30;5.53;;;25.60;95.20;;;;;;5109732;28;20097;-87
2023/09/09 10:53:24;;;;;;;7.95;5.10;;;25.60;93.30;;;;;;5106231;28;20069;-87
2023/09/09 10:55:55;;;;;;;7.30;5.13;;;25.70;94.10;;;;;;5098474;28;20419;-87
2023/09/09 10:58:33;;;;;;;7.43;4.40;;;25.70;96.00;;;;;;5105602;28;20027;-87
2023/09/09 11:00:59;;;;;;;4.90;3.83;;;25.70;93.90;;;;;;5103530;28;20032;-88
2023/09/09 11:03:48;;;;;;;5.65;4.18;;;25.80;91.90;;;;;;5108830;27;20023;-87
2023/09/09 11:06:27;;;;;;;6.85;3.90;;;25.90;76.70;;;;;;5106069;28;20058;-88
2023/09/09 11:08:56;;;;;;;5.30;3.90;;;26.10;81.20;;;;;;5107171;28;20016;-86
2023/09/09 11:11:31;;;;;;;5.45;3.85;;;26.30;77.00;;;;;;5111470;28;20115;-86
2023/09/09 11:13:57;;;;;;;7.22;4.40;;;26.20;76.30;;;;;;5101947;28;20428;-88
2023/09/09 11:16:27;;;;;;;6.45;4.60;;;26.30;65.90;;;;;;5109530;28;20020;-85
2023/09/09 11:19:16;;;;;;;5.38;4.50;;;26.50;64.20;;;;;;5110602;28;20101;-95
2023/09/09 11:21:49;;;;;;;5.63;4.53;;;26.70;59.10;;;;;;5108856;28;20027;-87
2023/09/09 11:24:15;;;;;;;8.57;5.90;;;26.80;62.50;;;;;;5106872;28;20740;-90
2023/09/09 11:26:49;;;;;;;22.13;7.07;;;26.80;63.50;;;;;;5102259;28;20476;-88
2023/09/09 11:29:18;;;;;;;7.97;4.97;;;26.70;73.20;;;;;;5103388;27;20038;-87
2023/09/09 11:31:44;;;;;;;6.05;4.35;;;26.80;76.00;;;;;;5106677;27;20100;-90
2023/09/09 11:34:10;;;;;;;6.70;4.35;;;26.80;73.30;;;;;;5107905;28;20035;-88
2023/09/09 11:36:35;;;;;;;4.55;3.75;;;26.80;69.80;;;;;;5108314;28;20545;-88
2023/09/09 11:39:01;;;;;;;8.00;4.50;;;26.70;68.10;;;;;;5101844;28;20023;-87
2023/09/09 11:41:28;;;;;;;8.02;4.20;;;26.80;66.90;;;;;;5105938;28;20023;-89
2023/09/09 11:44:08;;;;;;;7.32;5.57;;;26.70;66.00;;;;;;5100865;28;20051;-89
2023/09/09 11:47:00;;;;;;;8.63;4.93;;;26.60;64.40;;;;;;5103408;28;20084;-88
2023/09/09 11:49:26;;;;;;;5.15;4.65;;;26.60;66.00;;;;;;5104522;28;20045;-90
2023/09/09 11:51:52;;;;;;;5.20;4.03;;;26.50;64.20;;;;;;5104818;28;20434;-90
2023/09/09 11:54:19;;;;;;;4.65;3.55;;;26.50;66.90;;;;;;5104302;28;20035;-90
2023/09/09 11:56:45;;;;;;;5.38;4.18;;;26.60;67.70;;;;;;5102893;28;20485;-88
2023/09/09 11:59:11;;;;;;;10.95;4.10;;;26.60;65.70;;;;;;5105213;28;20020;-89
2023/09/09 12:01:44;;;;;;;48.88;35.30;;;26.80;65.30;;;;;;5102550;28;20035;-89
2023/09/09 12:04:12;;;;;;;11.60;7.13;;;26.90;58.30;;;;;;5104226;28;20106;-89
2023/09/09 12:06:43;;;;;;;7.05;4.80;;;27.10;57.20;;;;;;5100468;28;20089;-85
2023/09/09 12:09:09;;;;;;;10.15;6.40;;;27.20;62.70;;;;;;5102435;28;20048;-87
2023/09/09 12:11:36;;;;;;;8.82;5.28;;;27.40;57.00;;;;;;5100950;28;20027;-85
2023/09/09 12:14:02;;;;;;;7.60;4.65;;;27.50;56.00;;;;;;5104920;28;20118;-85
2023/09/09 12:16:30;;;;;;;8.13;5.05;;;27.60;58.60;;;;;;5108063;28;20058;-86
2023/09/09 12:18:55;;;;;;;9.32;4.38;;;27.70;57.50;;;;;;5099984;28;20480;-86
2023/09/09 12:21:21;;;;;;;10.93;5.03;;;27.90;54.60;;;;;;5103113;28;20020;-86
2023/09/09 12:23:47;;;;;;;7.55;4.22;;;27.90;53.80;;;;;;5101250;28;20035;-86
2023/09/09 12:26:18;;;;;;;7.72;4.95;;;28.00;52.10;;;;;;5102184;27;20488;-86
2023/09/09 12:29:07;;;;;;;4.82;4.05;;;28.10;52.80;;;;;;5110252;27;20473;-84
2023/09/09 12:31:33;;;;;;;5.35;3.70;;;28.10;53.40;;;;;;5108776;28;20262;-87
2023/09/09 12:33:59;;;;;;;9.18;5.38;;;27.90;52.50;;;;;;5098601;28;20174;-87
2023/09/09 12:36:25;;;;;;;5.68;3.92;;;27.90;54.00;;;;;;5104905;28;20114;-87
2023/09/09 12:38:51;;;;;;;8.18;4.40;;;27.90;54.90;;;;;;5108825;28;20024;-88
2023/09/09 12:41:21;;;;;;;8.18;4.47;;;27.90;55.20;;;;;;5106452;28;20496;-87
2023/09/09 12:43:48;;;;;;;6.25;4.28;;;27.80;58.10;;;;;;5106522;28;20031;-88
2023/09/09 12:46:19;;;;;;;7.47;3.92;;;27.80;57.70;;;;;;5101830;28;20429;-88